menu

WEBCAM & METEO

METAR LFQA (Reims-Prunay)

LFQA 160800Z AUTO 10006KT CAVOK 02/00 Q1027

TAF LFQA (Reims-Prunay)

Current TAF unavailable:

METAR LFOK (Chalons-Vatry)

LFOK 160800Z AUTO 16008KT CAVOK 03/00 Q1027 NOSIG

TAF LFOK (Chalons-Vatry)

TAF LFOK 160500Z 1606/1706 17008KT CAVOK